Time;durP1;ratioP1;P1;durP2;ratioP2;P2;SDS_P1;SDS_P2;PMS_P1;PMS_P2;Temp;Humidity;BMP_temperature;BMP_pressure;BME280_temperature;BME280_humidity;BME280_pressure;Samples;Min_cycle;Max_cycle;Signal;HPM_P1;HPM_P2
2021/03/06 00:00:36;;;;;;;57.85;23.23;;;-4.30;99.90;;;;;;5028929;28;20032;-77
2021/03/06 00:03:02;;;;;;;57.27;23.93;;;-4.40;99.90;;;;;;5014150;28;20042;-77
2021/03/06 00:05:28;;;;;;;61.07;25.53;;;-4.50;99.90;;;;;;5014054;28;20030;-77
2021/03/06 00:07:54;;;;;;;57.03;24.03;;;-4.50;99.90;;;;;;5014036;28;20026;-77
2021/03/06 00:10:20;;;;;;;53.30;23.70;;;-4.50;99.90;;;;;;5013942;28;20081;-77
2021/03/06 00:12:48;;;;;;;50.70;22.90;;;-4.50;99.90;;;;;;5013800;28;20071;-76
2021/03/06 00:15:23;;;;;;;59.15;24.58;;;-4.60;99.90;;;;;;5029085;28;20483;-77
2021/03/06 00:17:48;;;;;;;68.73;30.60;;;-4.60;99.90;;;;;;5013939;28;20384;-77
2021/03/06 00:20:14;;;;;;;109.43;44.37;;;-4.60;99.90;;;;;;5013828;28;20029;-77
2021/03/06 00:22:40;;;;;;;125.07;49.17;;;-4.60;99.90;;;;;;5028569;28;20041;-77
2021/03/06 00:25:10;;;;;;;106.63;41.60;;;-4.60;99.90;;;;;;5028772;28;20030;-77
2021/03/06 00:27:37;;;;;;;88.30;36.43;;;-4.60;99.90;;;;;;5013639;28;20065;-77
2021/03/06 00:30:11;;;;;;;78.97;34.53;;;-4.60;99.90;;;;;;5013403;28;20029;-77
2021/03/06 00:32:36;;;;;;;71.93;29.60;;;-4.70;99.90;;;;;;5028328;28;20112;-77
2021/03/06 00:35:04;;;;;;;62.63;26.60;;;-4.70;99.90;;;;;;5028811;28;20101;-77
2021/03/06 00:37:30;;;;;;;60.80;25.53;;;-4.70;99.90;;;;;;5013402;28;20022;-77
2021/03/06 00:39:56;;;;;;;62.43;26.87;;;-4.70;99.90;;;;;;5013517;28;20435;-77
2021/03/06 00:42:22;;;;;;;71.57;26.10;;;-4.70;99.90;;;;;;5028490;28;20026;-77
2021/03/06 00:44:47;;;;;;;57.43;23.60;;;-4.70;99.90;;;;;;5028299;28;20510;-77
2021/03/06 00:47:13;;;;;;;50.95;21.20;;;-4.70;99.90;;;;;;5012224;28;20018;-78
2021/03/06 00:49:39;;;;;;;56.77;21.93;;;-4.70;99.90;;;;;;5028327;28;20383;-77
2021/03/06 00:52:05;;;;;;;55.40;22.47;;;-4.70;99.90;;;;;;5012216;28;20021;-77
2021/03/06 00:54:31;;;;;;;52.60;22.15;;;-4.70;99.90;;;;;;5013176;28;20483;-76
2021/03/06 00:56:57;;;;;;;57.43;21.63;;;-4.80;99.90;;;;;;5011956;28;20026;-76
2021/03/06 00:59:22;;;;;;;51.47;22.27;;;-4.80;99.90;;;;;;5013214;28;20105;-77
2021/03/06 01:01:48;;;;;;;53.47;21.90;;;-4.80;99.90;;;;;;5013167;28;20036;-79
2021/03/06 01:04:14;;;;;;;48.17;22.37;;;-4.80;99.90;;;;;;5028325;28;20030;-76
2021/03/06 01:06:40;;;;;;;49.57;21.73;;;-4.80;99.90;;;;;;5011845;28;20158;-77
2021/03/06 01:09:05;;;;;;;58.03;22.70;;;-4.90;99.90;;;;;;5028245;28;20026;-76
2021/03/06 01:11:31;;;;;;;43.47;20.07;;;-4.90;99.90;;;;;;5012945;28;20014;-77
2021/03/06 01:13:57;;;;;;;51.20;21.13;;;-4.90;99.90;;;;;;5027996;28;20021;-77
2021/03/06 01:16:22;;;;;;;56.57;21.83;;;-4.90;99.90;;;;;;5013046;28;20030;-77
2021/03/06 01:18:48;;;;;;;51.83;19.40;;;-5.00;99.90;;;;;;5012760;28;20463;-77
2021/03/06 01:21:14;;;;;;;51.23;20.77;;;-5.00;99.90;;;;;;5028202;28;20026;-77
2021/03/06 01:23:40;;;;;;;46.50;20.63;;;-5.00;99.90;;;;;;5012763;28;20387;-77
2021/03/06 01:26:06;;;;;;;38.70;19.70;;;-5.00;99.90;;;;;;5012973;28;20064;-78
2021/03/06 01:28:31;;;;;;;51.50;20.93;;;-5.10;99.90;;;;;;5028157;28;20025;-77
2021/03/06 01:30:57;;;;;;;36.53;17.80;;;-5.00;99.90;;;;;;5028170;28;20026;-78
2021/03/06 01:33:23;;;;;;;35.97;18.20;;;-5.00;99.90;;;;;;5011565;28;20121;-77
2021/03/06 01:35:49;;;;;;;44.70;19.40;;;-5.00;99.90;;;;;;5027973;28;20410;-78
2021/03/06 01:38:14;;;;;;;45.07;19.07;;;-5.10;99.90;;;;;;5012781;28;20029;-77
2021/03/06 01:40:40;;;;;;;40.57;19.23;;;-5.10;99.90;;;;;;5011455;28;20036;-77
2021/03/06 01:43:09;;;;;;;49.47;19.90;;;-5.10;99.90;;;;;;5030450;28;20125;-78
2021/03/06 01:45:36;;;;;;;57.43;22.97;;;-5.20;99.90;;;;;;5031632;28;20368;-77
2021/03/06 01:48:03;;;;;;;64.20;25.17;;;-5.20;99.90;;;;;;5016784;28;20048;-77
2021/03/06 01:50:40;;;;;;;44.67;19.73;;;-5.20;99.90;;;;;;5031632;28;20034;-78
2021/03/06 01:53:08;;;;;;;37.53;16.83;;;-5.20;99.90;;;;;;5031862;28;20026;-77
2021/03/06 01:55:38;;;;;;;40.13;18.63;;;-5.20;99.90;;;;;;5031477;28;20014;-77
2021/03/06 01:58:04;;;;;;;36.97;17.13;;;-5.20;99.90;;;;;;5031643;28;20022;-77
2021/03/06 02:00:30;;;;;;;44.87;18.00;;;-5.20;99.90;;;;;;5031488;28;20034;-77
2021/03/06 02:02:57;;;;;;;43.23;18.13;;;-5.20;99.90;;;;;;5016339;28;20097;-78
2021/03/06 02:05:23;;;;;;;35.90;17.20;;;-5.20;99.90;;;;;;5016195;28;20387;-77
2021/03/06 02:07:49;;;;;;;32.90;16.67;;;-5.20;99.90;;;;;;5031787;28;20037;-77
2021/03/06 02:10:18;;;;;;;40.47;18.07;;;-5.30;99.90;;;;;;5016247;28;20033;-77
2021/03/06 02:12:55;;;;;;;37.03;16.47;;;-5.20;99.90;;;;;;5030864;28;20117;-77
2021/03/06 02:15:37;;;;;;;39.23;17.60;;;-5.30;99.90;;;;;;5014377;28;20026;-76
2021/03/06 02:18:11;;;;;;;36.53;17.17;;;-5.30;99.90;;;;;;5014805;28;20041;-77
2021/03/06 02:20:54;;;;;;;34.53;17.83;;;-5.30;99.90;;;;;;5031208;28;20029;-77
2021/03/06 02:23:45;;;;;;;33.63;17.70;;;-5.30;99.90;;;;;;5014437;28;20443;-77
2021/03/06 02:26:41;;;;;;;38.03;18.33;;;-5.30;99.90;;;;;;5015825;28;20053;-77
2021/03/06 02:29:25;;;;;;;47.20;18.50;;;-5.40;99.90;;;;;;5014647;28;20109;-77
2021/03/06 02:31:53;;;;;;;45.47;18.73;;;-5.40;99.90;;;;;;5015837;28;20046;-78
2021/03/06 02:34:25;;;;;;;33.37;17.50;;;-5.40;99.90;;;;;;5014522;28;20479;-77
2021/03/06 02:37:10;;;;;;;42.20;17.47;;;-5.40;99.90;;;;;;5014362;28;20442;-77
2021/03/06 02:39:42;;;;;;;44.40;17.83;;;-5.40;99.90;;;;;;5015658;28;20026;-77
2021/03/06 02:42:11;;;;;;;45.50;21.63;;;-5.50;99.90;;;;;;5013702;28;20050;-76
2021/03/06 02:44:37;;;;;;;42.53;19.40;;;-5.50;99.90;;;;;;5015461;28;20024;-76
2021/03/06 02:47:03;;;;;;;60.97;23.87;;;-5.50;99.90;;;;;;5014111;28;20454;-77
2021/03/06 02:49:29;;;;;;;64.60;24.40;;;-5.50;99.90;;;;;;5015060;28;20038;-77
2021/03/06 02:51:55;;;;;;;116.60;40.50;;;-5.50;99.90;;;;;;5014288;28;20114;-76
2021/03/06 02:54:20;;;;;;;113.90;40.03;;;-5.50;99.90;;;;;;5013310;28;20022;-76
2021/03/06 02:56:46;;;;;;;83.80;32.13;;;-5.50;99.90;;;;;;5014077;28;20041;-77
2021/03/06 02:59:20;;;;;;;71.67;26.57;;;-5.60;99.90;;;;;;5030637;28;20025;-77
2021/03/06 03:01:48;;;;;;;106.57;37.80;;;-5.60;99.90;;;;;;5014027;28;20073;-77
2021/03/06 03:04:30;;;;;;;119.53;40.87;;;-5.60;99.90;;;;;;5013808;28;20398;-77
2021/03/06 03:07:04;;;;;;;122.17;34.70;;;-5.60;99.90;;;;;;5015023;28;20498;-77
2021/03/06 03:09:34;;;;;;;108.37;35.67;;;-5.60;99.90;;;;;;5013508;28;20261;-77
2021/03/06 03:12:03;;;;;;;99.33;31.87;;;-5.60;99.90;;;;;;5014772;28;20038;-77
2021/03/06 03:14:46;;;;;;;78.13;27.83;;;-5.60;99.90;;;;;;5010532;28;20034;-77
2021/03/06 03:17:25;;;;;;;77.17;27.20;;;-5.60;99.90;;;;;;4994285;28;20379;-77
2021/03/06 03:20:12;;;;;;;89.93;27.63;;;-5.60;99.90;;;;;;4995878;28;20057;-77
2021/03/06 03:22:46;;;;;;;92.47;29.23;;;-5.60;99.90;;;;;;4993899;28;20030;-77
2021/03/06 03:25:13;;;;;;;89.37;29.60;;;-5.60;99.90;;;;;;4994066;28;20026;-77
2021/03/06 03:27:40;;;;;;;54.20;22.30;;;-5.70;99.90;;;;;;4993716;28;20176;-77
2021/03/06 03:30:09;;;;;;;35.33;16.77;;;-5.70;99.90;;;;;;4995189;28;20045;-77
2021/03/06 03:32:35;;;;;;;41.87;17.07;;;-5.70;99.90;;;;;;4995019;28;20385;-77
2021/03/06 03:35:02;;;;;;;37.37;16.27;;;-5.80;99.90;;;;;;4993799;28;20046;-76
2021/03/06 03:37:29;;;;;;;32.77;15.97;;;-5.80;99.90;;;;;;4995107;28;20031;-77
2021/03/06 03:39:56;;;;;;;35.37;15.23;;;-5.80;99.90;;;;;;4994760;28;20113;-77
2021/03/06 03:42:22;;;;;;;27.40;15.97;;;-5.80;99.90;;;;;;5012165;28;20394;-77
2021/03/06 03:44:49;;;;;;;37.00;17.23;;;-5.80;99.90;;;;;;5012999;28;20038;-77
2021/03/06 03:47:18;;;;;;;35.80;16.00;;;-5.80;99.90;;;;;;5029705;28;20053;-76
2021/03/06 03:49:44;;;;;;;33.03;15.23;;;-5.80;99.90;;;;;;5029448;28;20113;-76
2021/03/06 03:52:11;;;;;;;35.53;16.57;;;-5.80;99.90;;;;;;5014421;28;20156;-76
2021/03/06 03:54:39;;;;;;;31.43;15.13;;;-5.80;99.90;;;;;;5013851;28;20096;-77
2021/03/06 03:57:07;;;;;;;31.03;16.67;;;-5.90;99.90;;;;;;5029861;28;20026;-77
2021/03/06 03:59:33;;;;;;;31.57;16.20;;;-5.90;99.90;;;;;;5029474;28;20105;-77
2021/03/06 04:01:58;;;;;;;29.07;14.70;;;-6.00;99.90;;;;;;5014268;28;20454;-77
2021/03/06 04:04:29;;;;;;;26.63;15.47;;;-6.10;99.90;;;;;;5012674;28;20030;-77
2021/03/06 04:06:56;;;;;;;35.57;15.57;;;-6.10;99.90;;;;;;5028427;28;20029;-77
2021/03/06 04:09:23;;;;;;;31.70;17.07;;;-6.10;99.90;;;;;;5013908;28;20033;-77
2021/03/06 04:11:49;;;;;;;33.33;15.47;;;-6.10;99.90;;;;;;5013746;28;20026;-77
2021/03/06 04:14:14;;;;;;;33.37;16.80;;;-6.10;99.90;;;;;;5013841;28;20468;-77
2021/03/06 04:16:40;;;;;;;37.17;17.10;;;-6.10;99.90;;;;;;5013723;28;20033;-77
2021/03/06 04:19:06;;;;;;;33.30;16.17;;;-6.10;99.90;;;;;;5029014;28;20073;-76
2021/03/06 04:21:32;;;;;;;38.37;15.23;;;-6.10;99.90;;;;;;5013555;28;20369;-77
2021/03/06 04:23:58;;;;;;;38.43;16.67;;;-6.10;99.90;;;;;;5028839;28;20034;-77
2021/03/06 04:26:24;;;;;;;30.00;15.70;;;-6.20;99.90;;;;;;5013628;28;20065;-77
2021/03/06 04:28:50;;;;;;;30.10;15.37;;;-6.20;99.90;;;;;;5013649;28;20022;-77
2021/03/06 04:31:16;;;;;;;36.83;14.60;;;-6.20;99.90;;;;;;5013784;28;20026;-77
2021/03/06 04:33:42;;;;;;;34.23;17.47;;;-6.20;99.90;;;;;;5028621;28;20442;-76
2021/03/06 04:36:09;;;;;;;33.30;14.70;;;-6.30;99.90;;;;;;5013737;28;20021;-78
2021/03/06 04:38:35;;;;;;;33.67;17.20;;;-6.30;99.90;;;;;;5012965;28;20498;-77
2021/03/06 04:41:00;;;;;;;36.47;17.07;;;-6.30;99.90;;;;;;5012319;28;20034;-77
2021/03/06 04:43:26;;;;;;;35.10;16.13;;;-6.40;99.90;;;;;;5011991;28;20444;-78
2021/03/06 04:45:52;;;;;;;30.77;16.03;;;-6.40;99.90;;;;;;5013326;28;20030;-77
2021/03/06 04:48:18;;;;;;;33.03;16.57;;;-6.40;99.90;;;;;;5028602;28;20364;-77
2021/03/06 04:50:44;;;;;;;37.87;16.90;;;-6.40;99.90;;;;;;5028557;28;20026;-77
2021/03/06 04:53:10;;;;;;;30.30;15.33;;;-6.40;99.90;;;;;;5028656;28;20029;-77
2021/03/06 04:55:35;;;;;;;28.47;15.70;;;-6.40;99.90;;;;;;5013333;28;20061;-77
2021/03/06 04:58:01;;;;;;;32.00;15.10;;;-6.40;99.90;;;;;;5013251;28;20105;-78
2021/03/06 05:00:27;;;;;;;35.10;17.57;;;-6.40;99.90;;;;;;5013254;28;20026;-77
2021/03/06 05:02:53;;;;;;;27.80;15.43;;;-6.50;99.90;;;;;;5013172;28;20030;-78
2021/03/06 05:05:18;;;;;;;32.93;15.93;;;-6.50;99.90;;;;;;5013051;28;20034;-77
2021/03/06 05:07:44;;;;;;;35.20;16.37;;;-6.60;99.90;;;;;;5028397;28;20454;-77
2021/03/06 05:10:10;;;;;;;33.77;16.40;;;-6.60;99.90;;;;;;5012699;28;20379;-77
2021/03/06 05:12:36;;;;;;;37.00;16.73;;;-6.60;99.90;;;;;;5013130;28;20061;-77
2021/03/06 05:15:03;;;;;;;36.37;16.77;;;-6.70;99.90;;;;;;5012956;28;20018;-77
2021/03/06 05:17:28;;;;;;;37.80;16.97;;;-6.70;99.90;;;;;;5031677;28;20018;-77
2021/03/06 05:19:54;;;;;;;29.53;16.57;;;-6.70;99.90;;;;;;5019523;28;20029;-77
2021/03/06 05:22:21;;;;;;;36.53;17.47;;;-6.80;99.90;;;;;;5034629;28;20432;-78
2021/03/06 05:24:48;;;;;;;45.60;17.60;;;-6.80;99.90;;;;;;5034621;28;20022;-77
2021/03/06 05:27:14;;;;;;;40.23;18.13;;;-6.80;99.90;;;;;;5034416;28;20022;-77
2021/03/06 05:29:40;;;;;;;43.67;16.20;;;-6.80;99.90;;;;;;5034228;28;20080;-77
2021/03/06 05:32:06;;;;;;;34.27;16.40;;;-6.70;99.90;;;;;;5019595;28;20048;-77
2021/03/06 05:34:33;;;;;;;36.87;17.67;;;-6.70;99.90;;;;;;5034588;28;20029;-77
2021/03/06 05:36:59;;;;;;;36.33;17.63;;;-6.70;99.90;;;;;;5034632;28;20033;-77
2021/03/06 05:39:25;;;;;;;44.73;18.27;;;-6.70;99.90;;;;;;5019375;28;20080;-76
2021/03/06 05:41:51;;;;;;;41.10;18.20;;;-6.70;99.90;;;;;;5019398;28;20025;-77
2021/03/06 05:44:18;;;;;;;35.23;17.50;;;-6.70;99.90;;;;;;5019265;28;20048;-76
2021/03/06 05:46:44;;;;;;;40.43;17.13;;;-6.60;99.90;;;;;;5034375;28;20022;-77
2021/03/06 05:49:12;;;;;;;50.77;20.50;;;-6.60;99.90;;;;;;5034642;28;20091;-76
2021/03/06 05:51:39;;;;;;;39.70;17.70;;;-6.60;99.90;;;;;;5019366;28;20026;-77
2021/03/06 05:54:12;;;;;;;40.47;17.47;;;-6.50;99.90;;;;;;5034374;28;20054;-76
2021/03/06 05:56:40;;;;;;;35.90;17.20;;;-6.50;99.90;;;;;;5034407;28;20029;-77
2021/03/06 05:59:08;;;;;;;30.33;15.33;;;-6.50;99.90;;;;;;5034431;28;20033;-77
2021/03/06 06:01:36;;;;;;;32.53;15.80;;;-6.50;99.90;;;;;;5018910;28;20033;-77
2021/03/06 06:04:02;;;;;;;29.33;14.60;;;-6.40;99.90;;;;;;5019124;28;20537;-77
2021/03/06 06:06:30;;;;;;;34.83;15.67;;;-6.40;99.90;;;;;;5018804;28;20602;-77
2021/03/06 06:08:58;;;;;;;31.17;14.10;;;-6.40;99.90;;;;;;5034137;28;20033;-76
2021/03/06 06:11:27;;;;;;;37.07;16.03;;;-6.40;99.90;;;;;;5018885;28;20033;-77
2021/03/06 06:13:53;;;;;;;36.93;16.90;;;-6.30;99.90;;;;;;5034137;28;20022;-77
2021/03/06 06:16:21;;;;;;;35.43;17.53;;;-6.20;99.90;;;;;;5019072;28;20037;-76
2021/03/06 06:18:49;;;;;;;33.57;16.07;;;-6.10;99.90;;;;;;5034089;28;20088;-77
2021/03/06 06:21:44;;;;;;;33.70;17.00;;;-6.10;99.90;;;;;;5017648;28;20380;-77
2021/03/06 06:24:09;;;;;;;49.67;25.27;;;-6.00;99.90;;;;;;5002067;28;20060;-76
2021/03/06 06:26:36;;;;;;;48.63;21.27;;;-5.80;99.90;;;;;;5017588;28;20034;-77
2021/03/06 06:29:03;;;;;;;48.93;23.93;;;-5.60;99.90;;;;;;5031126;28;20037;-78
2021/03/06 06:31:29;;;;;;;46.80;21.83;;;-5.50;99.90;;;;;;5015416;28;20434;-78
2021/03/06 06:33:55;;;;;;;40.50;19.80;;;-5.30;99.90;;;;;;5015785;28;20033;-78
2021/03/06 06:36:38;;;;;;;39.23;19.47;;;-5.20;99.90;;;;;;5015651;28;20463;-78
2021/03/06 06:39:09;;;;;;;49.17;24.10;;;-5.00;99.90;;;;;;5030753;28;20034;-78
2021/03/06 06:41:56;;;;;;;45.97;20.70;;;-4.90;99.90;;;;;;5015708;28;20045;-78
2021/03/06 06:44:23;;;;;;;42.50;19.13;;;-4.70;99.90;;;;;;5015755;28;20495;-77
2021/03/06 06:46:51;;;;;;;44.17;18.80;;;-4.60;99.90;;;;;;5016316;28;20101;-78
2021/03/06 06:49:17;;;;;;;48.67;21.20;;;-4.40;99.90;;;;;;5014362;28;20420;-78
2021/03/06 06:52:04;;;;;;;53.97;22.40;;;-4.30;99.90;;;;;;5015468;28;20025;-79
2021/03/06 06:54:32;;;;;;;50.70;23.67;;;-4.10;99.90;;;;;;5015222;28;20482;-78
2021/03/06 06:57:12;;;;;;;52.77;24.77;;;-4.00;99.90;;;;;;5015275;28;20054;-78
2021/03/06 06:59:38;;;;;;;71.37;36.70;;;-3.90;99.90;;;;;;5029551;28;20061;-78
2021/03/06 07:02:08;;;;;;;73.10;29.43;;;-3.80;99.90;;;;;;5012476;28;20054;-79
2021/03/06 07:05:05;;;;;;;58.83;28.27;;;-3.70;99.90;;;;;;5014800;28;20033;-78
2021/03/06 07:07:41;;;;;;;52.22;23.55;;;-3.60;99.90;;;;;;5012125;28;20058;-78
2021/03/06 07:10:12;;;;;;;53.53;24.75;;;-3.50;99.90;;;;;;5013703;28;20133;-78
2021/03/06 07:12:40;;;;;;;61.90;26.33;;;-3.30;99.90;;;;;;5013676;28;20487;-77
2021/03/06 07:15:17;;;;;;;59.47;23.05;;;-3.20;99.90;;;;;;5014915;28;20022;-77
2021/03/06 07:17:44;;;;;;;51.78;24.25;;;-3.00;99.90;;;;;;5014840;28;20033;-78
2021/03/06 07:20:32;;;;;;;57.28;24.63;;;-2.90;99.90;;;;;;5013698;28;20037;-79
2021/03/06 07:23:16;;;;;;;62.28;29.85;;;-2.60;99.90;;;;;;5014704;28;20106;-77
2021/03/06 07:25:42;;;;;;;;;;;-2.40;99.90;;;;;;5013820;28;20017;-77
2021/03/06 07:28:08;;;;;;;47.55;22.42;;;-2.40;99.90;;;;;;5014638;28;19909;-78
2021/03/06 07:30:35;;;;;;;46.35;22.00;;;-2.30;99.90;;;;;;5014536;28;20060;-78
2021/03/06 07:33:04;;;;;;;60.88;30.42;;;-2.20;99.90;;;;;;5029963;28;20021;-78
2021/03/06 07:35:35;;;;;;;60.08;26.92;;;-2.10;99.90;;;;;;5014386;28;20065;-78
2021/03/06 07:38:05;;;;;;;31.73;17.42;;;-2.10;99.90;;;;;;5012545;28;20129;-78
2021/03/06 07:40:33;;;;;;;34.15;16.92;;;-2.20;99.90;;;;;;5014036;28;20498;-78
2021/03/06 07:43:01;;;;;;;38.13;16.95;;;-2.10;99.90;;;;;;5029444;28;20033;-78
2021/03/06 07:45:29;;;;;;;58.58;25.40;;;-2.00;99.90;;;;;;5029605;28;20056;-77
2021/03/06 07:48:16;;;;;;;92.05;41.67;;;-1.90;99.90;;;;;;5029660;28;20109;-78
2021/03/06 07:50:44;;;;;;;56.28;25.80;;;-1.80;99.90;;;;;;5029469;28;20018;-78
2021/03/06 07:53:14;;;;;;;42.42;18.73;;;-1.70;99.90;;;;;;5029457;28;20428;-79
2021/03/06 07:55:41;;;;;;;72.15;34.83;;;-1.70;99.90;;;;;;5014332;28;20026;-78
2021/03/06 07:58:18;;;;;;;112.50;42.75;;;-1.60;99.90;;;;;;5013966;28;20018;-78
2021/03/06 08:00:54;;;;;;;52.85;23.95;;;-1.50;99.90;;;;;;5029036;28;20034;-78
2021/03/06 08:03:34;;;;;;;68.07;33.53;;;-1.50;99.40;;;;;;5012820;28;20032;-78
2021/03/06 08:06:17;;;;;;;94.45;40.35;;;-1.40;99.70;;;;;;5014114;28;20022;-79
2021/03/06 08:08:42;;;;;;;81.10;29.50;;;-1.30;99.90;;;;;;5012587;28;20426;-78
2021/03/06 08:11:11;;;;;;;68.10;25.20;;;-1.30;99.90;;;;;;5012568;28;20034;-80
2021/03/06 08:13:37;;;;;;;54.65;21.42;;;-1.20;99.80;;;;;;5013787;28;20033;-78
2021/03/06 08:16:24;;;;;;;52.35;23.75;;;-1.20;99.10;;;;;;5013887;28;20162;-78
2021/03/06 08:18:55;;;;;;;44.38;19.95;;;-0.90;99.90;;;;;;5012240;28;20034;-79
2021/03/06 08:21:40;;;;;;;56.50;28.58;;;-0.80;99.50;;;;;;5013679;28;20100;-77
2021/03/06 08:26:41;;;;;;;61.58;24.98;;;-0.60;92.30;;;;;;5013319;28;20100;-80
2021/03/06 08:29:22;;;;;;;56.75;20.55;;;-0.50;91.90;;;;;;5028491;28;20030;-80
2021/03/06 08:32:17;;;;;;;41.38;18.63;;;-0.40;91.50;;;;;;5028798;28;20036;-79
2021/03/06 08:34:49;;;;;;;27.50;12.80;;;-0.30;88.70;;;;;;5007416;28;20049;-78
2021/03/06 08:37:15;;;;;;;32.65;13.70;;;-0.30;84.30;;;;;;5013362;28;20076;-78
2021/03/06 08:39:49;;;;;;;29.77;13.93;;;-0.20;85.00;;;;;;5028326;28;20430;-78
2021/03/06 08:42:17;;;;;;;32.53;14.15;;;-0.10;84.50;;;;;;5012126;28;20017;-78
2021/03/06 08:44:43;;;;;;;44.10;17.67;;;-0.10;79.60;;;;;;5012006;28;20088;-78
2021/03/06 08:47:09;;;;;;;63.30;23.90;;;0.00;80.50;;;;;;5013421;28;20483;-78
2021/03/06 08:49:37;;;;;;;30.15;14.68;;;0.00;81.40;;;;;;5012917;28;20064;-78
2021/03/06 08:52:03;;;;;;;20.00;10.57;;;-0.10;81.20;;;;;;5027922;28;20105;-78
2021/03/06 08:54:42;;;;;;;22.88;11.77;;;0.00;83.80;;;;;;5013185;28;20076;-78
2021/03/06 08:57:25;;;;;;;143.27;53.55;;;0.20;81.90;;;;;;5028422;28;20018;-78
2021/03/06 08:59:52;;;;;;;34.17;12.85;;;0.30;82.50;;;;;;5013161;28;20385;-78
2021/03/06 09:02:25;;;;;;;29.65;13.32;;;0.30;81.00;;;;;;5028208;28;20029;-79
2021/03/06 09:05:11;;;;;;;30.02;13.82;;;0.20;77.90;;;;;;5028088;28;20026;-78
2021/03/06 09:07:49;;;;;;;29.02;13.98;;;0.40;79.50;;;;;;5011859;28;20108;-78
2021/03/06 09:10:16;;;;;;;23.98;13.63;;;0.50;77.50;;;;;;5028251;28;20434;-78
2021/03/06 09:12:43;;;;;;;44.90;18.95;;;0.50;77.30;;;;;;5028109;28;20026;-78
2021/03/06 09:15:22;;;;;;;34.33;15.57;;;0.70;81.00;;;;;;5028105;28;20036;-78
2021/03/06 09:17:48;;;;;;;43.40;17.33;;;0.80;79.00;;;;;;5012756;28;20388;-78
2021/03/06 09:20:14;;;;;;;28.25;12.25;;;0.80;80.20;;;;;;5011245;28;20034;-78
2021/03/06 09:22:48;;;;;;;36.60;18.00;;;0.80;77.20;;;;;;5012410;28;20048;-78
2021/03/06 09:25:14;;;;;;;26.95;12.57;;;0.80;77.50;;;;;;5012694;28;20018;-78
2021/03/06 09:27:47;;;;;;;21.08;12.05;;;0.80;75.80;;;;;;5011302;28;20114;-78
2021/03/06 09:30:39;;;;;;;20.05;9.15;;;0.80;78.10;;;;;;5011383;28;20049;-78
2021/03/06 09:33:21;;;;;;;17.40;10.90;;;0.70;74.40;;;;;;5012777;28;20084;-78
2021/03/06 09:35:59;;;;;;;12.48;8.32;;;0.90;74.90;;;;;;5011235;28;20048;-78
2021/03/06 09:38:25;;;;;;;18.58;8.65;;;1.10;72.90;;;;;;5012800;28;20105;-78
2021/03/06 09:40:50;;;;;;;17.70;8.48;;;1.20;70.40;;;;;;5011324;28;20462;-78
2021/03/06 09:43:24;;;;;;;21.88;10.40;;;1.20;68.10;;;;;;5011593;28;20120;-78
2021/03/06 09:45:50;;;;;;;95.07;39.47;;;1.40;70.90;;;;;;5011309;28;20125;-78
2021/03/06 09:48:16;;;;;;;34.35;15.27;;;1.60;72.00;;;;;;5010890;28;20105;-78
2021/03/06 09:50:44;;;;;;;23.77;12.55;;;1.90;72.40;;;;;;5012658;28;20025;-78
2021/03/06 09:53:15;;;;;;;22.13;11.57;;;2.10;69.50;;;;;;5012783;28;20112;-78
2021/03/06 09:55:41;;;;;;;23.45;10.45;;;2.30;68.90;;;;;;5027586;28;20056;-78
2021/03/06 09:58:20;;;;;;;34.00;13.50;;;2.40;65.20;;;;;;5012581;28;20066;-79
2021/03/06 10:00:46;;;;;;;12.63;7.25;;;2.20;64.00;;;;;;5012574;28;20383;-79
2021/03/06 10:03:26;;;;;;;27.52;12.60;;;2.10;62.80;;;;;;5012406;28;20137;-77
2021/03/06 10:05:54;;;;;;;24.38;12.68;;;1.90;63.60;;;;;;5014929;28;20383;-78
2021/03/06 10:08:20;;;;;;;22.00;11.05;;;1.70;62.30;;;;;;5015090;28;20033;-79
2021/03/06 10:10:47;;;;;;;19.70;10.07;;;1.60;64.40;;;;;;5015995;28;20379;-78
2021/03/06 10:13:17;;;;;;;33.15;15.93;;;1.50;66.20;;;;;;5016201;28;20029;-79
2021/03/06 10:15:43;;;;;;;27.75;14.48;;;1.40;66.30;;;;;;5031289;28;20022;-79
2021/03/06 10:18:08;;;;;;;34.00;17.52;;;1.60;68.80;;;;;;5031016;28;20029;-78
2021/03/06 10:20:34;;;;;;;29.85;14.13;;;1.80;65.80;;;;;;5013761;28;20407;-79
2021/03/06 10:23:00;;;;;;;22.15;11.32;;;2.00;65.60;;;;;;5031041;28;20037;-79
2021/03/06 10:25:27;;;;;;;20.75;9.68;;;2.30;67.00;;;;;;5015812;28;20030;-79
2021/03/06 10:27:53;;;;;;;18.83;10.18;;;2.30;65.30;;;;;;5015858;28;20502;-80
2021/03/06 10:30:29;;;;;;;24.15;11.43;;;2.30;66.30;;;;;;5015721;28;20076;-78
2021/03/06 10:33:00;;;;;;;45.20;18.52;;;2.10;64.40;;;;;;5015689;28;20352;-78
2021/03/06 10:35:40;;;;;;;25.67;10.68;;;2.00;67.40;;;;;;5030947;28;20022;-79
2021/03/06 10:38:23;;;;;;;37.92;14.52;;;1.90;65.30;;;;;;5015638;28;20050;-79
2021/03/06 10:40:55;;;;;;;21.63;8.82;;;1.90;65.20;;;;;;5014382;28;20029;-78
2021/03/06 10:43:42;;;;;;;19.00;7.90;;;1.90;66.20;;;;;;5015722;28;20502;-78
2021/03/06 10:46:22;;;;;;;23.75;9.15;;;2.10;63.20;;;;;;5015534;28;20510;-80
2021/03/06 10:48:53;;;;;;;12.55;5.13;;;2.40;63.20;;;;;;5030383;28;20033;-78
2021/03/06 10:51:18;;;;;;;19.08;9.50;;;2.30;59.80;;;;;;5030595;28;20033;-79
2021/03/06 10:54:05;;;;;;;10.57;6.22;;;2.10;60.10;;;;;;5029856;28;20026;-78
2021/03/06 10:56:31;;;;;;;9.27;5.18;;;2.10;58.70;;;;;;5030253;28;20428;-78
2021/03/06 10:58:57;;;;;;;8.82;4.55;;;2.40;61.50;;;;;;5015443;28;20033;-78
2021/03/06 11:01:23;;;;;;;8.68;4.55;;;2.40;61.00;;;;;;5015461;28;20467;-78
2021/03/06 11:03:52;;;;;;;3.75;3.20;;;2.50;58.20;;;;;;5013698;28;20041;-79
2021/03/06 11:06:19;;;;;;;11.15;5.35;;;2.30;55.40;;;;;;5014103;28;20025;-78
2021/03/06 11:08:59;;;;;;;12.00;4.38;;;2.30;58.20;;;;;;5015120;28;20026;-79
2021/03/06 11:11:25;;;;;;;8.82;3.90;;;2.10;56.90;;;;;;5015168;28;20097;-79
2021/03/06 11:13:51;;;;;;;9.07;3.90;;;2.00;57.80;;;;;;5030301;28;20117;-78
2021/03/06 11:16:34;;;;;;;12.68;6.53;;;2.10;57.80;;;;;;5029887;28;20406;-78
2021/03/06 11:18:59;;;;;;;7.85;4.95;;;2.40;59.90;;;;;;5030157;28;20048;-78
2021/03/06 11:21:25;;;;;;;8.10;3.83;;;2.50;60.00;;;;;;5030268;28;20555;-78
2021/03/06 11:23:51;;;;;;;7.03;4.55;;;2.70;59.20;;;;;;5030023;28;20042;-77
2021/03/06 11:26:16;;;;;;;10.35;4.97;;;2.90;60.10;;;;;;5014928;28;20060;-77
2021/03/06 11:28:42;;;;;;;6.82;4.00;;;3.10;58.50;;;;;;5015021;28;20025;-77
2021/03/06 11:31:08;;;;;;;4.63;2.92;;;3.10;56.40;;;;;;5030147;28;20033;-78
2021/03/06 11:33:33;;;;;;;4.72;3.03;;;3.20;55.30;;;;;;5030220;28;20101;-77
2021/03/06 11:35:59;;;;;;;4.88;3.78;;;3.30;56.20;;;;;;5030014;28;20037;-77
2021/03/06 11:38:25;;;;;;;7.63;5.25;;;3.40;56.40;;;;;;5014640;28;20066;-77
2021/03/06 11:40:52;;;;;;;5.95;3.72;;;3.60;56.30;;;;;;5029734;28;20033;-78
2021/03/06 11:43:19;;;;;;;6.30;4.20;;;3.50;55.10;;;;;;5014463;28;20033;-77
2021/03/06 11:45:45;;;;;;;8.15;3.92;;;3.50;54.90;;;;;;5014421;28;20037;-77
2021/03/06 11:48:11;;;;;;;8.48;3.92;;;3.50;54.00;;;;;;5012920;28;20496;-78
2021/03/06 11:50:40;;;;;;;6.50;3.63;;;3.60;53.90;;;;;;5029536;28;20046;-77
2021/03/06 11:53:06;;;;;;;8.65;4.68;;;3.50;52.20;;;;;;5014265;28;20488;-78
2021/03/06 11:55:33;;;;;;;6.20;4.25;;;3.60;52.80;;;;;;5014206;28;20029;-78
2021/03/06 11:57:59;;;;;;;5.97;4.20;;;3.50;50.90;;;;;;5029148;28;20113;-78
2021/03/06 12:00:27;;;;;;;7.20;4.18;;;3.40;50.60;;;;;;5013797;28;20526;-77
2021/03/06 12:02:53;;;;;;;6.85;4.30;;;3.40;50.40;;;;;;5014161;28;20037;-77
2021/03/06 12:05:19;;;;;;;8.00;3.90;;;3.50;51.80;;;;;;5014202;28;20042;-77
2021/03/06 12:07:46;;;;;;;5.28;3.67;;;3.20;50.60;;;;;;5029237;28;20590;-79
2021/03/06 12:10:15;;;;;;;5.60;4.47;;;2.70;50.10;;;;;;5029359;28;20022;-77
2021/03/06 12:12:43;;;;;;;9.55;4.57;;;2.60;49.50;;;;;;5029070;28;20026;-78
2021/03/06 12:15:10;;;;;;;4.07;3.05;;;2.40;49.40;;;;;;5029430;28;20190;-78
2021/03/06 12:17:36;;;;;;;8.82;5.85;;;2.20;49.30;;;;;;5029080;28;20022;-78
2021/03/06 12:20:03;;;;;;;6.90;4.47;;;2.20;51.20;;;;;;5029141;28;20365;-78
2021/03/06 12:22:29;;;;;;;4.82;3.65;;;2.20;51.50;;;;;;5028675;28;20022;-77
2021/03/06 12:24:54;;;;;;;32.42;12.38;;;2.30;51.10;;;;;;5012846;28;20095;-77
2021/03/06 12:27:20;;;;;;;20.75;8.77;;;2.50;52.80;;;;;;5028070;28;20026;-78
2021/03/06 12:29:46;;;;;;;20.38;9.52;;;2.60;52.20;;;;;;5013645;28;20026;-77
2021/03/06 12:32:12;;;;;;;18.95;10.70;;;2.80;53.20;;;;;;5028966;28;20153;-77
2021/03/06 12:34:38;;;;;;;8.93;5.88;;;2.80;51.90;;;;;;5028825;28;20113;-77
2021/03/06 12:37:04;;;;;;;6.38;3.50;;;2.80;51.80;;;;;;5013703;28;20026;-78
2021/03/06 12:39:30;;;;;;;7.20;3.90;;;2.70;51.40;;;;;;5028709;28;20057;-77
2021/03/06 12:41:56;;;;;;;10.65;5.10;;;2.50;50.80;;;;;;5028733;28;20598;-77
2021/03/06 12:44:22;;;;;;;8.68;5.07;;;2.50;52.40;;;;;;5013458;28;20041;-78
2021/03/06 12:46:48;;;;;;;15.75;7.78;;;2.50;51.90;;;;;;5013476;28;20025;-78